Time;durP1;ratioP1;P1;durP2;ratioP2;P2;SDS_P1;SDS_P2;PMS_P1;PMS_P2;Temp;Humidity;BMP_temperature;BMP_pressure;BME280_temperature;BME280_humidity;BME280_pressure;Samples;Min_cycle;Max_cycle;Signal;HPM_P1;HPM_P2
2021/09/10 00:01:14;;;;;;;10.05;9.15;;;;;;;15.92;77.00;94692.77;833787;71;31801;-77
2021/09/10 00:16:14;;;;;;;9.50;8.70;;;;;;;15.88;77.37;94695.81;827285;71;31735;-77
2021/09/10 00:31:15;;;;;;;10.35;9.45;;;;;;;15.83;77.53;94699.38;833719;71;31691;-77
2021/09/10 00:46:10;;;;;;;11.63;10.63;;;;;;;15.77;78.55;94698.00;834037;71;28706;-78
2021/09/10 01:01:13;;;;;;;11.38;10.20;;;;;;;15.70;79.16;94695.81;829551;71;31026;-79
2021/09/10 01:16:08;;;;;;;13.32;12.03;;;;;;;15.67;79.43;94683.20;828674;71;29192;-79
2021/09/10 01:31:14;;;;;;;13.13;11.93;;;;;;;15.63;79.89;94684.40;833549;71;31714;-79
2021/09/10 01:46:08;;;;;;;13.05;11.75;;;;;;;15.54;80.00;94673.60;833876;71;29236;-77
2021/09/10 02:01:12;;;;;;;11.88;10.72;;;;;;;15.42;79.97;94678.20;833952;71;30985;-77
2021/09/10 02:16:11;;;;;;;12.45;10.20;;;;;;;15.32;80.12;94675.88;828242;71;28713;-77
2021/09/10 02:31:09;;;;;;;10.50;9.60;;;;;;;15.20;80.08;94668.02;834062;71;29710;-77
2021/09/10 02:46:14;;;;;;;11.00;8.85;;;;;;;15.10;80.05;94680.23;833814;71;33208;-77
2021/09/10 03:16:08;;;;;;;11.53;10.35;;;;;;;14.78;80.31;94678.30;828031;71;30224;-77
2021/09/10 03:31:14;;;;;;;10.70;9.55;;;;;;;16.74;76.37;94683.26;827228;71;32707;-77
2021/09/10 03:46:14;;;;;;;9.35;8.48;;;;;;;15.76;75.95;94691.94;827353;71;32771;-77
2021/09/10 04:01:15;;;;;;;10.32;9.40;;;;;;;15.20;77.14;94686.53;833941;71;32700;-77
2021/09/10 04:16:08;;;;;;;9.93;8.85;;;;;;;14.89;77.98;94695.94;829781;71;29676;-77
2021/09/10 04:31:09;;;;;;;15.10;11.48;;;;;;;14.73;78.66;94712.77;829496;71;30410;-80
2021/09/10 04:46:09;;;;;;;13.83;11.80;;;;;;;14.93;78.11;94720.66;827824;71;30373;-80
2021/09/10 05:01:14;;;;;;;13.58;12.25;;;;;;;15.46;77.61;94718.80;827822;71;32755;-82
2021/09/10 05:16:08;;;;;;;14.78;13.40;;;;;;;17.06;76.24;94712.87;835124;71;29744;-81
2021/09/10 05:31:09;;;;;;;13.72;12.53;;;;;;;19.41;68.43;94708.85;828344;71;30774;-80
2021/09/10 05:46:14;;;;;;;11.53;10.43;;;;;;;21.40;61.03;94719.89;833966;71;32720;-78
2021/09/10 06:01:18;;;;;;;12.87;11.60;;;;;;;21.68;57.88;94711.69;833954;71;33986;-79
2021/09/10 06:16:08;;;;;;;13.40;12.20;;;;;;;22.80;55.43;94713.77;822007;71;30224;-80
2021/09/10 06:31:09;;;;;;;12.17;10.97;;;;;;;24.05;54.50;94699.59;817601;71;30424;-76
2021/09/10 06:46:14;;;;;;;14.00;12.30;;;;;;;24.54;51.29;94710.60;822450;71;32925;-76
2021/09/10 07:01:14;;;;;;;10.83;9.90;;;;;;;24.38;49.08;94702.20;822845;71;32856;-78
2021/09/10 07:16:08;;;;;;;10.27;9.10;;;;;;;24.69;46.91;94712.81;819640;71;29531;-80
2021/09/10 07:31:08;;;;;;;11.47;9.53;;;;;;;25.29;45.42;94713.02;819691;71;30349;-79
2021/09/10 07:46:18;;;;;;;7.20;6.50;;;;;;;24.10;42.97;94720.72;827270;71;32692;-80
2021/09/10 08:01:08;;;;;;;6.23;5.63;;;;;;;23.84;43.16;94722.38;835600;71;29701;-79
2021/09/10 08:16:09;;;;;;;7.70;7.03;;;;;;;25.45;41.46;94716.73;828790;70;29400;-79
2021/09/10 08:31:09;;;;;;;9.30;8.40;;;;;;;25.11;39.23;94717.68;831710;71;30165;-79
2021/09/10 08:46:15;;;;;;;10.10;7.13;;;;;;;25.43;38.81;94716.34;827344;71;32782;-79
2021/09/10 09:16:29;;;;;;;6.03;4.57;;;;;;;25.23;36.31;94682.28;794280;74;28643;-80
2021/09/10 09:31:12;;;;;;;4.60;4.30;;;;;;;25.35;36.65;94672.55;829231;71;30387;-82
2021/09/10 09:46:11;;;;;;;4.83;4.43;;;;;;;24.91;36.59;94658.69;828328;71;28270;-79
2021/09/10 10:01:11;;;;;;;4.93;4.27;;;;;;;25.74;33.31;94646.36;833979;71;28768;-79
2021/09/10 10:16:35;;;;;;;4.93;4.30;;;;;;;25.63;32.59;94643.66;833833;71;31853;-80
2021/09/10 10:31:10;;;;;;;6.27;3.87;;;;;;;25.40;34.42;94641.27;828043;71;28807;-76
2021/09/10 10:46:14;;;;;;;4.27;3.87;;;;;;;26.12;32.30;94632.79;827453;71;31781;-78
2021/09/10 11:01:17;;;;;;;4.47;4.07;;;;;;;;;;830275;70;31782;-78
2021/09/10 11:16:15;;;;;;;3.80;3.50;;;;;;;;;;828403;71;31693;-76
2021/09/10 11:31:11;;;;;;;3.93;3.50;;;;;;;;;;814019;71;31038;-78
2021/09/10 11:46:17;;;;;;;4.87;4.50;;;;;;;25.17;31.38;94583.23;829308;71;31718;-79
2021/09/10 12:01:19;;;;;;;8.60;4.20;;;;;;;25.85;37.13;94570.53;835703;70;29492;-77
2021/09/10 12:16:21;;;;;;;4.80;4.23;;;;;;;25.32;32.17;94575.23;827068;71;32178;-76
2021/09/10 12:31:10;;;;;;;5.50;4.20;;;;;;;24.63;35.11;94568.05;829187;71;28859;-77
2021/09/10 12:46:11;;;;;;;4.77;4.27;;;;;;;24.91;33.62;94569.52;828259;71;28998;-76
2021/09/10 13:01:15;;;;;;;4.60;4.30;;;;;;;24.94;35.06;94555.90;827191;71;31698;-75
2021/09/10 13:16:08;;;;;;;5.27;4.50;;;;;;;25.02;34.19;94552.13;828025;71;29150;-75
2021/09/10 13:31:20;;;;;;;4.40;4.00;;;;;;;24.82;33.27;94542.81;827162;71;31766;-75
2021/09/10 13:46:16;;;;;;;5.33;4.27;;;;;;;24.13;34.07;94538.43;827327;71;31665;-76
2021/09/10 14:01:13;;;;;;;4.97;4.47;;;;;;;23.64;34.42;94548.95;828444;71;30625;-80
2021/09/10 14:16:17;;;;;;;4.40;4.10;;;;;;;23.46;34.52;94538.08;792922;73;31960;-79
2021/09/10 14:31:14;;;;;;;4.23;3.83;;;;;;;23.73;34.52;94544.03;834081;71;31700;-81
2021/09/10 14:46:08;;;;;;;4.53;4.13;;;;;;;23.46;34.57;94538.08;833920;71;28744;-79
2021/09/10 15:16:09;;;;;;;4.70;4.30;;;;;;;23.29;36.84;94541.34;827973;71;29938;-79
2021/09/10 15:31:15;;;;;;;5.03;4.73;;;;;;;23.07;37.18;94542.45;833877;71;31784;-80
2021/09/10 15:46:09;;;;;;;4.97;4.50;;;;;;;22.77;38.47;94538.48;827984;71;29232;-78
2021/09/10 16:01:08;;;;;;;4.57;4.17;;;;;;;22.54;38.81;94535.89;828445;71;28684;-79
2021/09/10 16:16:10;;;;;;;7.73;4.70;;;;;;;22.14;37.42;94540.69;828195;71;28659;-76
2021/09/10 16:31:10;;;;;;;5.53;5.03;;;;;;;21.83;39.83;94557.77;827793;71;29772;-78
2021/09/10 16:46:20;;;;;;;6.00;4.57;;;;;;;21.33;38.00;94578.25;827325;71;31703;-78
2021/09/10 17:01:08;;;;;;;4.80;4.40;;;;;;;21.12;38.83;94587.98;829108;71;28734;-78
2021/09/10 17:16:13;;;;;;;10.77;8.33;;;;;;;20.93;41.03;94590.88;833889;71;31575;-79
2021/09/10 17:31:09;;;;;;;10.63;9.10;;;;;;;22.26;45.85;94621.83;821828;71;29398;-75
2021/09/10 17:46:18;;;;;;;9.60;6.87;;;;;;;21.55;41.93;94634.18;827667;71;32582;-79
2021/09/10 18:01:16;;;;;;;7.17;6.30;;;;;;;20.57;44.33;94638.09;827426;71;31733;-76
2021/09/10 18:16:14;;;;;;;6.17;5.58;;;;;;;19.99;46.15;94656.54;834265;71;31773;-78
2021/09/10 18:31:08;;;;;;;13.40;8.65;;;;;;;19.64;47.05;94651.84;828289;71;28745;-80
2021/09/10 18:46:18;;;;;;;10.10;7.85;;;;;;;19.41;48.15;94651.63;827586;71;32220;-78
2021/09/10 19:01:16;;;;;;;10.68;9.35;;;;;;;19.18;48.87;94650.05;827453;71;33165;-77
2021/09/10 19:16:12;;;;;;;9.85;8.68;;;;;;;18.95;49.62;94657.21;828243;71;32458;-79
2021/09/10 19:31:15;;;;;;;10.63;7.83;;;;;;;18.69;50.10;94659.45;827340;71;32747;-78
2021/09/10 19:46:16;;;;;;;11.60;7.20;;;;;;;18.44;50.86;94657.39;827235;71;32679;-77
2021/09/10 20:01:08;;;;;;;6.58;5.90;;;;;;;18.22;50.97;94657.48;828276;71;29744;-79
2021/09/10 20:16:08;;;;;;;6.87;6.25;;;;;;;18.00;51.84;94656.06;828226;71;29769;-78
2021/09/10 20:31:11;;;;;;;7.40;6.60;;;;;;;17.48;53.23;94619.44;824009;71;30852;-77
2021/09/10 20:46:08;;;;;;;10.43;7.00;;;;;;;17.58;54.03;94667.34;828057;71;29839;-78
2021/09/10 21:16:15;;;;;;;7.83;7.10;;;;;;;17.25;52.88;94670.73;834157;71;32794;-79
2021/09/10 21:31:15;;;;;;;8.45;7.60;;;;;;;17.06;53.08;94673.86;827286;71;32700;-78
2021/09/10 21:46:09;;;;;;;10.05;7.70;;;;;;;16.86;53.15;94672.76;828106;71;30317;-77
2021/09/10 22:01:08;;;;;;;7.53;6.78;;;;;;;16.70;53.95;94671.75;828335;71;29740;-78
2021/09/10 22:16:14;;;;;;;7.28;6.55;;;;;;;16.59;54.80;94664.73;827510;71;32680;-77
2021/09/10 22:31:09;;;;;;;8.18;7.08;;;;;;;16.40;55.46;94645.27;833934;71;30269;-78
2021/09/10 22:46:08;;;;;;;7.60;6.62;;;;;;;16.25;56.35;94657.75;834110;71;30242;-77
2021/09/10 23:01:08;;;;;;;8.80;6.60;;;;;;;16.07;57.15;94645.14;828218;71;29762;-77
2021/09/10 23:16:08;;;;;;;7.08;6.37;;;;;;;15.93;57.87;94647.99;830174;71;29705;-79
2021/09/10 23:31:13;;;;;;;7.05;6.35;;;;;;;15.72;58.29;94648.69;834057;71;32007;-76
2021/09/10 23:46:16;;;;;;;6.67;5.95;;;;;;;15.52;58.80;94667.30;827742;71;32782;-77
